sensor_id;sensor_type;location;lat;lon;timestamp;P1;durP1;ratioP1;P2;durP2;ratioP2
64678;SDS011;51094;53.864;27.676;2022-12-26T00:00:50;1.40;;;1.40;;
64678;SDS011;51094;53.864;27.676;2022-12-26T00:03:22;1.30;;;1.30;;
64678;SDS011;51094;53.864;27.676;2022-12-26T00:05:49;1.45;;;1.45;;
64678;SDS011;51094;53.864;27.676;2022-12-26T00:08:16;1.33;;;1.33;;
64678;SDS011;51094;53.864;27.676;2022-12-26T00:10:43;1.40;;;1.40;;
64678;SDS011;51094;53.864;27.676;2022-12-26T00:13:10;1.50;;;1.50;;
64678;SDS011;51094;53.864;27.676;2022-12-26T00:15:57;1.50;;;1.50;;
64678;SDS011;51094;53.864;27.676;2022-12-26T00:18:24;1.38;;;1.38;;
64678;SDS011;51094;53.864;27.676;2022-12-26T00:20:51;1.50;;;1.50;;
64678;SDS011;51094;53.864;27.676;2022-12-26T00:23:17;1.20;;;1.20;;
64678;SDS011;51094;53.864;27.676;2022-12-26T00:25:44;1.30;;;1.30;;
64678;SDS011;51094;53.864;27.676;2022-12-26T00:28:11;1.30;;;1.30;;
64678;SDS011;51094;53.864;27.676;2022-12-26T00:30:38;1.30;;;1.30;;
64678;SDS011;51094;53.864;27.676;2022-12-26T00:33:04;1.63;;;1.63;;
64678;SDS011;51094;53.864;27.676;2022-12-26T00:35:31;1.58;;;1.58;;
64678;SDS011;51094;53.864;27.676;2022-12-26T00:37:58;1.60;;;1.60;;
64678;SDS011;51094;53.864;27.676;2022-12-26T00:40:25;1.90;;;1.90;;
64678;SDS011;51094;53.864;27.676;2022-12-26T00:42:52;1.70;;;1.70;;
64678;SDS011;51094;53.864;27.676;2022-12-26T00:45:18;1.83;;;1.83;;
64678;SDS011;51094;53.864;27.676;2022-12-26T00:47:45;1.85;;;1.85;;
64678;SDS011;51094;53.864;27.676;2022-12-26T00:50:12;1.80;;;1.80;;
64678;SDS011;51094;53.864;27.676;2022-12-26T00:52:41;1.83;;;1.83;;
64678;SDS011;51094;53.864;27.676;2022-12-26T00:55:08;2.20;;;2.20;;
64678;SDS011;51094;53.864;27.676;2022-12-26T00:57:36;2.20;;;2.20;;
64678;SDS011;51094;53.864;27.676;2022-12-26T01:00:03;2.40;;;2.40;;
64678;SDS011;51094;53.864;27.676;2022-12-26T01:02:30;2.10;;;2.10;;
64678;SDS011;51094;53.864;27.676;2022-12-26T01:05:06;2.40;;;2.40;;
64678;SDS011;51094;53.864;27.676;2022-12-26T01:07:35;2.40;;;2.40;;
64678;SDS011;51094;53.864;27.676;2022-12-26T01:10:22;2.80;;;2.80;;
64678;SDS011;51094;53.864;27.676;2022-12-26T01:12:49;2.70;;;2.70;;
64678;SDS011;51094;53.864;27.676;2022-12-26T01:15:16;2.65;;;2.65;;
64678;SDS011;51094;53.864;27.676;2022-12-26T01:17:44;3.17;;;3.08;;
64678;SDS011;51094;53.864;27.676;2022-12-26T01:20:11;3.40;;;3.30;;
64678;SDS011;51094;53.864;27.676;2022-12-26T01:22:40;2.90;;;2.90;;
64678;SDS011;51094;53.864;27.676;2022-12-26T01:25:07;3.50;;;3.40;;
64678;SDS011;51094;53.864;27.676;2022-12-26T01:27:34;3.55;;;3.53;;
64678;SDS011;51094;53.864;27.676;2022-12-26T01:30:00;3.50;;;3.50;;
64678;SDS011;51094;53.864;27.676;2022-12-26T01:32:27;4.07;;;3.97;;
64678;SDS011;51094;53.864;27.676;2022-12-26T01:34:54;3.90;;;3.80;;
64678;SDS011;51094;53.864;27.676;2022-12-26T01:37:21;4.10;;;4.00;;
64678;SDS011;51094;53.864;27.676;2022-12-26T01:39:49;3.95;;;3.85;;
64678;SDS011;51094;53.864;27.676;2022-12-26T01:42:19;3.90;;;3.80;;
64678;SDS011;51094;53.864;27.676;2022-12-26T01:47:33;3.60;;;3.50;;
64678;SDS011;51094;53.864;27.676;2022-12-26T01:50:05;3.28;;;3.17;;
64678;SDS011;51094;53.864;27.676;2022-12-26T01:52:43;2.88;;;2.88;;
64678;SDS011;51094;53.864;27.676;2022-12-26T01:55:13;3.50;;;3.40;;
64678;SDS011;51094;53.864;27.676;2022-12-26T01:57:46;3.17;;;3.17;;
64678;SDS011;51094;53.864;27.676;2022-12-26T02:00:18;3.80;;;3.70;;
64678;SDS011;51094;53.864;27.676;2022-12-26T02:02:45;3.42;;;3.42;;
64678;SDS011;51094;53.864;27.676;2022-12-26T02:05:31;3.50;;;3.50;;
64678;SDS011;51094;53.864;27.676;2022-12-26T02:08:06;3.40;;;3.40;;
64678;SDS011;51094;53.864;27.676;2022-12-26T02:10:47;3.25;;;3.25;;
64678;SDS011;51094;53.864;27.676;2022-12-26T02:13:18;3.20;;;3.20;;
64678;SDS011;51094;53.864;27.676;2022-12-26T02:15:45;4.30;;;4.20;;
64678;SDS011;51094;53.864;27.676;2022-12-26T02:18:12;3.63;;;3.63;;
64678;SDS011;51094;53.864;27.676;2022-12-26T02:20:41;3.78;;;3.72;;
64678;SDS011;51094;53.864;27.676;2022-12-26T02:23:34;3.75;;;3.75;;
64678;SDS011;51094;53.864;27.676;2022-12-26T02:28:52;3.75;;;3.65;;
64678;SDS011;51094;53.864;27.676;2022-12-26T02:31:35;4.10;;;4.00;;
64678;SDS011;51094;53.864;27.676;2022-12-26T02:57:24;2.10;;;2.10;;
64678;SDS011;51094;53.864;27.676;2022-12-26T03:00:17;2.20;;;2.20;;
64678;SDS011;51094;53.864;27.676;2022-12-26T03:06:19;2.40;;;2.40;;
64678;SDS011;51094;53.864;27.676;2022-12-26T03:09:09;2.50;;;2.50;;
64678;SDS011;51094;53.864;27.676;2022-12-26T03:12:03;2.30;;;2.30;;
64678;SDS011;51094;53.864;27.676;2022-12-26T03:14:53;2.42;;;2.42;;
64678;SDS011;51094;53.864;27.676;2022-12-26T03:20:13;2.10;;;2.10;;
64678;SDS011;51094;53.864;27.676;2022-12-26T03:22:48;2.10;;;2.10;;
64678;SDS011;51094;53.864;27.676;2022-12-26T03:28:14;1.80;;;1.80;;
64678;SDS011;51094;53.864;27.676;2022-12-26T03:30:41;1.90;;;1.90;;
64678;SDS011;51094;53.864;27.676;2022-12-26T03:33:18;1.90;;;1.90;;
64678;SDS011;51094;53.864;27.676;2022-12-26T03:36:11;1.90;;;1.90;;
64678;SDS011;51094;53.864;27.676;2022-12-26T03:41:41;2.65;;;2.65;;
64678;SDS011;51094;53.864;27.676;2022-12-26T03:47:35;2.10;;;2.10;;
64678;SDS011;51094;53.864;27.676;2022-12-26T03:50:34;1.98;;;1.98;;
64678;SDS011;51094;53.864;27.676;2022-12-26T03:53:27;2.08;;;2.08;;
64678;SDS011;51094;53.864;27.676;2022-12-26T03:56:34;1.90;;;1.90;;
64678;SDS011;51094;53.864;27.676;2022-12-26T03:59:37;1.75;;;1.75;;
64678;SDS011;51094;53.864;27.676;2022-12-26T04:02:37;2.08;;;2.08;;
64678;SDS011;51094;53.864;27.676;2022-12-26T04:05:25;2.22;;;2.22;;
64678;SDS011;51094;53.864;27.676;2022-12-26T04:08:12;2.28;;;2.28;;
64678;SDS011;51094;53.864;27.676;2022-12-26T04:11:03;2.33;;;2.33;;
64678;SDS011;51094;53.864;27.676;2022-12-26T04:16:49;2.30;;;2.30;;
64678;SDS011;51094;53.864;27.676;2022-12-26T04:19:58;2.33;;;2.33;;
64678;SDS011;51094;53.864;27.676;2022-12-26T04:22:54;2.42;;;2.42;;
64678;SDS011;51094;53.864;27.676;2022-12-26T04:25:46;2.42;;;2.42;;
64678;SDS011;51094;53.864;27.676;2022-12-26T04:28:39;2.50;;;2.50;;
64678;SDS011;51094;53.864;27.676;2022-12-26T04:31:26;2.75;;;2.75;;
64678;SDS011;51094;53.864;27.676;2022-12-26T04:34:26;2.80;;;2.80;;
64678;SDS011;51094;53.864;27.676;2022-12-26T04:37:17;2.80;;;2.80;;
64678;SDS011;51094;53.864;27.676;2022-12-26T04:40:08;3.10;;;3.10;;
64678;SDS011;51094;53.864;27.676;2022-12-26T04:42:58;3.38;;;3.38;;
64678;SDS011;51094;53.864;27.676;2022-12-26T04:46:04;3.30;;;3.30;;
64678;SDS011;51094;53.864;27.676;2022-12-26T04:48:32;3.65;;;3.65;;
64678;SDS011;51094;53.864;27.676;2022-12-26T04:51:25;3.40;;;3.40;;
64678;SDS011;51094;53.864;27.676;2022-12-26T04:53:52;3.95;;;3.95;;
64678;SDS011;51094;53.864;27.676;2022-12-26T04:56:19;4.15;;;4.10;;
64678;SDS011;51094;53.864;27.676;2022-12-26T04:58:46;4.38;;;4.28;;
64678;SDS011;51094;53.864;27.676;2022-12-26T05:01:13;4.60;;;4.50;;
64678;SDS011;51094;53.864;27.676;2022-12-26T05:03:58;4.65;;;4.55;;
64678;SDS011;51094;53.864;27.676;2022-12-26T05:06:43;4.45;;;4.35;;
64678;SDS011;51094;53.864;27.676;2022-12-26T05:09:29;3.70;;;3.65;;
64678;SDS011;51094;53.864;27.676;2022-12-26T05:12:03;3.88;;;3.88;;
64678;SDS011;51094;53.864;27.676;2022-12-26T05:14:34;4.45;;;4.35;;
64678;SDS011;51094;53.864;27.676;2022-12-26T05:17:02;4.55;;;4.45;;
64678;SDS011;51094;53.864;27.676;2022-12-26T05:19:49;4.68;;;4.57;;
64678;SDS011;51094;53.864;27.676;2022-12-26T05:22:38;4.93;;;4.82;;
64678;SDS011;51094;53.864;27.676;2022-12-26T05:25:26;5.47;;;5.38;;
64678;SDS011;51094;53.864;27.676;2022-12-26T05:28:14;4.97;;;4.88;;
64678;SDS011;51094;53.864;27.676;2022-12-26T05:31:01;4.93;;;4.82;;
64678;SDS011;51094;53.864;27.676;2022-12-26T05:33:29;4.85;;;4.75;;
64678;SDS011;51094;53.864;27.676;2022-12-26T05:36:15;4.28;;;4.18;;
64678;SDS011;51094;53.864;27.676;2022-12-26T05:38:44;4.30;;;4.20;;
64678;SDS011;51094;53.864;27.676;2022-12-26T05:41:11;4.80;;;4.70;;
64678;SDS011;51094;53.864;27.676;2022-12-26T05:43:38;4.53;;;4.43;;
64678;SDS011;51094;53.864;27.676;2022-12-26T05:46:05;4.57;;;4.47;;
64678;SDS011;51094;53.864;27.676;2022-12-26T05:48:32;4.32;;;4.22;;
64678;SDS011;51094;53.864;27.676;2022-12-26T05:50:59;4.82;;;4.72;;
64678;SDS011;51094;53.864;27.676;2022-12-26T05:53:27;4.35;;;4.25;;
64678;SDS011;51094;53.864;27.676;2022-12-26T05:56:00;4.32;;;4.22;;
64678;SDS011;51094;53.864;27.676;2022-12-26T05:58:31;4.13;;;4.03;;
64678;SDS011;51094;53.864;27.676;2022-12-26T06:03:39;4.53;;;4.43;;
64678;SDS011;51094;53.864;27.676;2022-12-26T06:06:09;4.05;;;3.95;;
64678;SDS011;51094;53.864;27.676;2022-12-26T06:08:37;4.05;;;3.95;;
64678;SDS011;51094;53.864;27.676;2022-12-26T06:11:08;3.45;;;3.45;;
64678;SDS011;51094;53.864;27.676;2022-12-26T06:13:37;3.78;;;3.70;;
64678;SDS011;51094;53.864;27.676;2022-12-26T06:16:06;3.70;;;3.70;;
64678;SDS011;51094;53.864;27.676;2022-12-26T06:18:34;3.63;;;3.63;;
64678;SDS011;51094;53.864;27.676;2022-12-26T06:21:04;3.53;;;3.53;;
64678;SDS011;51094;53.864;27.676;2022-12-26T06:23:36;2.92;;;2.92;;
64678;SDS011;51094;53.864;27.676;2022-12-26T06:26:04;2.65;;;2.65;;
64678;SDS011;51094;53.864;27.676;2022-12-26T06:28:32;2.53;;;2.53;;
64678;SDS011;51094;53.864;27.676;2022-12-26T06:31:01;2.55;;;2.55;;
64678;SDS011;51094;53.864;27.676;2022-12-26T06:33:29;2.15;;;2.15;;
64678;SDS011;51094;53.864;27.676;2022-12-26T06:36:10;2.30;;;2.30;;
64678;SDS011;51094;53.864;27.676;2022-12-26T06:38:39;2.40;;;2.40;;
64678;SDS011;51094;53.864;27.676;2022-12-26T06:41:08;2.70;;;2.70;;
64678;SDS011;51094;53.864;27.676;2022-12-26T06:43:36;2.10;;;2.10;;
64678;SDS011;51094;53.864;27.676;2022-12-26T06:46:04;2.22;;;2.22;;
64678;SDS011;51094;53.864;27.676;2022-12-26T06:48:32;2.00;;;2.00;;
64678;SDS011;51094;53.864;27.676;2022-12-26T06:51:06;2.33;;;2.33;;
64678;SDS011;51094;53.864;27.676;2022-12-26T06:53:38;2.00;;;2.00;;
64678;SDS011;51094;53.864;27.676;2022-12-26T06:56:12;2.20;;;2.20;;
64678;SDS011;51094;53.864;27.676;2022-12-26T06:58:41;1.92;;;1.92;;
64678;SDS011;51094;53.864;27.676;2022-12-26T07:01:09;2.15;;;2.15;;
64678;SDS011;51094;53.864;27.676;2022-12-26T07:03:37;1.95;;;1.95;;
64678;SDS011;51094;53.864;27.676;2022-12-26T07:06:21;2.47;;;2.47;;
64678;SDS011;51094;53.864;27.676;2022-12-26T07:08:53;2.00;;;2.00;;
64678;SDS011;51094;53.864;27.676;2022-12-26T07:11:24;2.10;;;2.10;;
64678;SDS011;51094;53.864;27.676;2022-12-26T07:13:53;2.17;;;2.17;;
64678;SDS011;51094;53.864;27.676;2022-12-26T07:16:22;2.25;;;2.25;;
64678;SDS011;51094;53.864;27.676;2022-12-26T07:18:53;1.98;;;1.98;;
64678;SDS011;51094;53.864;27.676;2022-12-26T07:21:22;1.90;;;1.90;;
64678;SDS011;51094;53.864;27.676;2022-12-26T07:23:50;1.80;;;1.80;;
64678;SDS011;51094;53.864;27.676;2022-12-26T07:26:17;1.90;;;1.90;;
64678;SDS011;51094;53.864;27.676;2022-12-26T07:28:46;1.63;;;1.63;;
64678;SDS011;51094;53.864;27.676;2022-12-26T07:31:14;1.80;;;1.80;;
64678;SDS011;51094;53.864;27.676;2022-12-26T07:33:47;1.90;;;1.90;;
64678;SDS011;51094;53.864;27.676;2022-12-26T07:36:14;2.03;;;2.03;;
64678;SDS011;51094;53.864;27.676;2022-12-26T07:38:42;2.17;;;2.17;;
64678;SDS011;51094;53.864;27.676;2022-12-26T07:41:09;2.50;;;2.50;;
64678;SDS011;51094;53.864;27.676;2022-12-26T07:43:54;2.47;;;2.47;;
64678;SDS011;51094;53.864;27.676;2022-12-26T07:46:22;2.47;;;2.47;;
64678;SDS011;51094;53.864;27.676;2022-12-26T07:48:53;2.40;;;2.40;;
64678;SDS011;51094;53.864;27.676;2022-12-26T07:51:20;2.00;;;2.00;;
64678;SDS011;51094;53.864;27.676;2022-12-26T07:53:50;1.95;;;1.95;;
64678;SDS011;51094;53.864;27.676;2022-12-26T07:56:18;2.00;;;2.00;;
64678;SDS011;51094;53.864;27.676;2022-12-26T07:58:48;1.73;;;1.73;;
64678;SDS011;51094;53.864;27.676;2022-12-26T08:01:15;2.10;;;2.10;;
64678;SDS011;51094;53.864;27.676;2022-12-26T08:03:43;2.13;;;2.13;;
64678;SDS011;51094;53.864;27.676;2022-12-26T08:06:10;2.40;;;2.40;;
64678;SDS011;51094;53.864;27.676;2022-12-26T08:08:37;2.80;;;2.80;;
64678;SDS011;51094;53.864;27.676;2022-12-26T08:11:05;2.60;;;2.60;;
64678;SDS011;51094;53.864;27.676;2022-12-26T08:13:33;1.98;;;1.98;;
64678;SDS011;51094;53.864;27.676;2022-12-26T08:16:06;2.00;;;2.00;;
64678;SDS011;51094;53.864;27.676;2022-12-26T08:18:35;1.80;;;1.80;;
64678;SDS011;51094;53.864;27.676;2022-12-26T08:21:02;1.70;;;1.70;;
64678;SDS011;51094;53.864;27.676;2022-12-26T08:23:29;1.80;;;1.80;;
64678;SDS011;51094;53.864;27.676;2022-12-26T08:25:56;1.67;;;1.67;;
64678;SDS011;51094;53.864;27.676;2022-12-26T08:28:22;2.00;;;2.00;;
64678;SDS011;51094;53.864;27.676;2022-12-26T08:30:49;1.90;;;1.90;;
64678;SDS011;51094;53.864;27.676;2022-12-26T08:33:16;1.70;;;1.70;;
64678;SDS011;51094;53.864;27.676;2022-12-26T08:35:43;2.38;;;2.38;;
64678;SDS011;51094;53.864;27.676;2022-12-26T08:38:10;2.50;;;2.50;;
64678;SDS011;51094;53.864;27.676;2022-12-26T08:40:38;2.35;;;2.35;;
64678;SDS011;51094;53.864;27.676;2022-12-26T08:43:10;2.28;;;2.28;;
64678;SDS011;51094;53.864;27.676;2022-12-26T08:46:16;2.40;;;2.40;;
64678;SDS011;51094;53.864;27.676;2022-12-26T08:48:44;2.90;;;2.90;;
64678;SDS011;51094;53.864;27.676;2022-12-26T08:51:22;2.85;;;2.85;;
64678;SDS011;51094;53.864;27.676;2022-12-26T08:53:51;2.40;;;2.40;;
64678;SDS011;51094;53.864;27.676;2022-12-26T08:56:21;2.70;;;2.70;;
64678;SDS011;51094;53.864;27.676;2022-12-26T08:58:50;2.28;;;2.28;;
64678;SDS011;51094;53.864;27.676;2022-12-26T09:01:21;2.13;;;2.13;;
64678;SDS011;51094;53.864;27.676;2022-12-26T09:03:53;2.35;;;2.35;;
64678;SDS011;51094;53.864;27.676;2022-12-26T09:06:22;1.95;;;1.95;;
64678;SDS011;51094;53.864;27.676;2022-12-26T09:08:49;2.20;;;2.20;;
64678;SDS011;51094;53.864;27.676;2022-12-26T09:11:19;2.10;;;2.10;;
64678;SDS011;51094;53.864;27.676;2022-12-26T09:13:48;2.08;;;2.08;;
64678;SDS011;51094;53.864;27.676;2022-12-26T09:16:18;2.05;;;2.05;;
64678;SDS011;51094;53.864;27.676;2022-12-26T09:18:53;2.10;;;2.10;;
64678;SDS011;51094;53.864;27.676;2022-12-26T09:21:22;2.22;;;2.22;;
64678;SDS011;51094;53.864;27.676;2022-12-26T09:23:54;2.20;;;2.20;;
64678;SDS011;51094;53.864;27.676;2022-12-26T09:26:22;2.00;;;2.00;;
64678;SDS011;51094;53.864;27.676;2022-12-26T09:28:49;2.30;;;2.30;;
64678;SDS011;51094;53.864;27.676;2022-12-26T09:31:21;2.10;;;2.10;;
64678;SDS011;51094;53.864;27.676;2022-12-26T09:33:49;1.95;;;1.95;;
64678;SDS011;51094;53.864;27.676;2022-12-26T09:36:19;2.08;;;2.08;;
64678;SDS011;51094;53.864;27.676;2022-12-26T09:38:51;2.10;;;2.10;;
64678;SDS011;51094;53.864;27.676;2022-12-26T09:41:37;1.67;;;1.67;;
64678;SDS011;51094;53.864;27.676;2022-12-26T09:44:29;1.77;;;1.77;;
64678;SDS011;51094;53.864;27.676;2022-12-26T09:49:58;1.70;;;1.70;;
64678;SDS011;51094;53.864;27.676;2022-12-26T09:52:36;1.60;;;1.60;;
64678;SDS011;51094;53.864;27.676;2022-12-26T10:03:52;1.50;;;1.50;;
64678;SDS011;51094;53.864;27.676;2022-12-26T10:06:25;1.60;;;1.60;;
64678;SDS011;51094;53.864;27.676;2022-12-26T10:20:04;1.75;;;1.75;;
64678;SDS011;51094;53.864;27.676;2022-12-26T10:25:58;1.75;;;1.75;;
64678;SDS011;51094;53.864;27.676;2022-12-26T10:28:36;1.50;;;1.50;;
64678;SDS011;51094;53.864;27.676;2022-12-26T10:31:15;1.80;;;1.80;;
64678;SDS011;51094;53.864;27.676;2022-12-26T10:36:54;1.98;;;1.98;;
64678;SDS011;51094;53.864;27.676;2022-12-26T10:42:10;1.90;;;1.90;;
64678;SDS011;51094;53.864;27.676;2022-12-26T10:44:46;1.65;;;1.65;;
64678;SDS011;51094;53.864;27.676;2022-12-26T10:47:16;1.90;;;1.90;;
64678;SDS011;51094;53.864;27.676;2022-12-26T10:49:49;1.70;;;1.70;;
64678;SDS011;51094;53.864;27.676;2022-12-26T10:52:17;1.70;;;1.70;;
64678;SDS011;51094;53.864;27.676;2022-12-26T10:54:49;1.90;;;1.90;;
64678;SDS011;51094;53.864;27.676;2022-12-26T10:57:43;1.92;;;1.92;;
64678;SDS011;51094;53.864;27.676;2022-12-26T11:02:45;1.80;;;1.80;;
64678;SDS011;51094;53.864;27.676;2022-12-26T11:05:28;2.50;;;2.50;;
64678;SDS011;51094;53.864;27.676;2022-12-26T11:13:35;1.98;;;1.98;;
64678;SDS011;51094;53.864;27.676;2022-12-26T11:16:04;1.73;;;1.73;;
64678;SDS011;51094;53.864;27.676;2022-12-26T11:18:34;1.80;;;1.80;;
64678;SDS011;51094;53.864;27.676;2022-12-26T11:21:13;2.00;;;2.00;;
64678;SDS011;51094;53.864;27.676;2022-12-26T11:23:47;2.05;;;2.05;;
64678;SDS011;51094;53.864;27.676;2022-12-26T11:26:27;2.28;;;2.28;;
64678;SDS011;51094;53.864;27.676;2022-12-26T11:29:10;2.20;;;2.20;;
64678;SDS011;51094;53.864;27.676;2022-12-26T11:31:43;2.28;;;2.28;;
64678;SDS011;51094;53.864;27.676;2022-12-26T11:34:37;2.40;;;2.40;;
64678;SDS011;51094;53.864;27.676;2022-12-26T11:39:59;2.45;;;2.45;;
64678;SDS011;51094;53.864;27.676;2022-12-26T11:42:27;2.40;;;2.40;;
64678;SDS011;51094;53.864;27.676;2022-12-26T11:44:55;2.55;;;2.55;;
64678;SDS011;51094;53.864;27.676;2022-12-26T11:47:27;2.47;;;2.47;;
64678;SDS011;51094;53.864;27.676;2022-12-26T11:49:58;2.65;;;2.65;;
64678;SDS011;51094;53.864;27.676;2022-12-26T11:52:35;2.45;;;2.45;;
64678;SDS011;51094;53.864;27.676;2022-12-26T12:00:38;2.58;;;2.58;;
64678;SDS011;51094;53.864;27.676;2022-12-26T12:03:10;2.70;;;2.70;;
64678;SDS011;51094;53.864;27.676;2022-12-26T12:06:08;2.30;;;2.30;;
64678;SDS011;51094;53.864;27.676;2022-12-26T12:08:52;2.22;;;2.22;;
64678;SDS011;51094;53.864;27.676;2022-12-26T12:11:48;2.08;;;2.08;;
64678;SDS011;51094;53.864;27.676;2022-12-26T12:24:56;2.30;;;2.30;;
64678;SDS011;51094;53.864;27.676;2022-12-26T12:27:34;2.50;;;2.50;;
64678;SDS011;51094;53.864;27.676;2022-12-26T12:35:29;2.35;;;2.35;;
64678;SDS011;51094;53.864;27.676;2022-12-26T12:43:42;2.50;;;2.50;;
64678;SDS011;51094;53.864;27.676;2022-12-26T12:46:22;2.65;;;2.65;;
64678;SDS011;51094;53.864;27.676;2022-12-26T12:57:23;2.78;;;2.72;;
64678;SDS011;51094;53.864;27.676;2022-12-26T13:02:50;2.70;;;2.70;;
64678;SDS011;51094;53.864;27.676;2022-12-26T13:08:06;2.95;;;2.95;;
64678;SDS011;51094;53.864;27.676;2022-12-26T13:10:40;2.90;;;2.80;;
64678;SDS011;51094;53.864;27.676;2022-12-26T13:13:20;2.42;;;2.42;;
64678;SDS011;51094;53.864;27.676;2022-12-26T13:15:56;2.60;;;2.60;;
64678;SDS011;51094;53.864;27.676;2022-12-26T13:18:33;3.10;;;3.00;;
64678;SDS011;51094;53.864;27.676;2022-12-26T13:21:04;2.80;;;2.80;;
64678;SDS011;51094;53.864;27.676;2022-12-26T13:23:43;2.85;;;2.75;;
64678;SDS011;51094;53.864;27.676;2022-12-26T13:26:34;2.83;;;2.83;;
64678;SDS011;51094;53.864;27.676;2022-12-26T13:31:56;2.55;;;2.55;;
64678;SDS011;51094;53.864;27.676;2022-12-26T13:34:24;3.00;;;2.90;;
64678;SDS011;51094;53.864;27.676;2022-12-26T13:36:52;2.95;;;2.90;;
64678;SDS011;51094;53.864;27.676;2022-12-26T13:42:37;3.13;;;3.05;;
64678;SDS011;51094;53.864;27.676;2022-12-26T13:45:20;3.22;;;3.13;;
64678;SDS011;51094;53.864;27.676;2022-12-26T13:48:45;3.67;;;3.58;;
64678;SDS011;51094;53.864;27.676;2022-12-26T13:50:52;3.83;;;3.72;;
64678;SDS011;51094;53.864;27.676;2022-12-26T14:01:06;3.83;;;3.72;;
64678;SDS011;51094;53.864;27.676;2022-12-26T14:15:23;3.42;;;3.33;;
64678;SDS011;51094;53.864;27.676;2022-12-26T14:23:48;3.42;;;3.33;;
64678;SDS011;51094;53.864;27.676;2022-12-26T14:34:44;3.97;;;3.88;;
64678;SDS011;51094;53.864;27.676;2022-12-26T14:37:40;3.70;;;3.60;;
64678;SDS011;51094;53.864;27.676;2022-12-26T15:03:50;3.17;;;3.08;;
64678;SDS011;51094;53.864;27.676;2022-12-26T15:15:21;3.20;;;3.20;;
64678;SDS011;51094;53.864;27.676;2022-12-26T15:18:32;3.00;;;3.00;;
64678;SDS011;51094;53.864;27.676;2022-12-26T15:24:11;3.10;;;3.10;;
64678;SDS011;51094;53.864;27.676;2022-12-26T15:27:31;2.70;;;2.70;;
64678;SDS011;51094;53.864;27.676;2022-12-26T15:33:01;3.00;;;3.00;;
64678;SDS011;51094;53.864;27.676;2022-12-26T15:35:35;2.90;;;2.90;;
64678;SDS011;51094;53.864;27.676;2022-12-26T15:38:25;2.90;;;2.90;;
64678;SDS011;51094;53.864;27.676;2022-12-26T15:46:21;3.00;;;3.00;;
64678;SDS011;51094;53.864;27.676;2022-12-26T17:40:57;3.70;;;3.70;;
64678;SDS011;51094;53.864;27.676;2022-12-26T17:43:32;3.80;;;3.70;;
64678;SDS011;51094;53.864;27.676;2022-12-26T17:46:01;4.25;;;4.15;;
64678;SDS011;51094;53.864;27.676;2022-12-26T17:48:29;4.53;;;4.43;;
64678;SDS011;51094;53.864;27.676;2022-12-26T17:50:59;4.03;;;4.03;;
64678;SDS011;51094;53.864;27.676;2022-12-26T17:53:35;4.50;;;4.40;;
64678;SDS011;51094;53.864;27.676;2022-12-26T17:56:04;4.15;;;4.05;;
64678;SDS011;51094;53.864;27.676;2022-12-26T17:58:33;4.95;;;4.85;;
64678;SDS011;51094;53.864;27.676;2022-12-26T18:01:00;4.65;;;4.55;;
64678;SDS011;51094;53.864;27.676;2022-12-26T18:03:28;4.40;;;4.30;;
64678;SDS011;51094;53.864;27.676;2022-12-26T18:05:55;4.65;;;4.55;;
64678;SDS011;51094;53.864;27.676;2022-12-26T18:10:54;5.20;;;5.10;;
64678;SDS011;51094;53.864;27.676;2022-12-26T18:13:21;4.75;;;4.65;;
64678;SDS011;51094;53.864;27.676;2022-12-26T18:15:49;4.80;;;4.70;;
64678;SDS011;51094;53.864;27.676;2022-12-26T18:18:22;5.00;;;4.90;;
64678;SDS011;51094;53.864;27.676;2022-12-26T18:20:59;5.20;;;5.10;;
64678;SDS011;51094;53.864;27.676;2022-12-26T18:23:27;5.20;;;5.10;;
64678;SDS011;51094;53.864;27.676;2022-12-26T18:25:55;5.50;;;5.40;;
64678;SDS011;51094;53.864;27.676;2022-12-26T18:28:25;5.50;;;5.40;;
64678;SDS011;51094;53.864;27.676;2022-12-26T18:30:54;5.10;;;5.00;;
64678;SDS011;51094;53.864;27.676;2022-12-26T18:35:51;5.75;;;5.65;;
64678;SDS011;51094;53.864;27.676;2022-12-26T18:38:19;5.35;;;5.25;;
64678;SDS011;51094;53.864;27.676;2022-12-26T18:40:48;5.40;;;5.30;;
64678;SDS011;51094;53.864;27.676;2022-12-26T18:43:18;4.97;;;4.88;;
64678;SDS011;51094;53.864;27.676;2022-12-26T18:45:45;5.07;;;4.97;;
64678;SDS011;51094;53.864;27.676;2022-12-26T18:48:14;4.97;;;4.88;;
64678;SDS011;51094;53.864;27.676;2022-12-26T18:50:42;4.85;;;4.75;;
64678;SDS011;51094;53.864;27.676;2022-12-26T18:53:09;5.90;;;5.80;;
64678;SDS011;51094;53.864;27.676;2022-12-26T18:55:37;5.20;;;5.10;;
64678;SDS011;51094;53.864;27.676;2022-12-26T18:58:05;5.38;;;5.28;;
64678;SDS011;51094;53.864;27.676;2022-12-26T19:00:32;5.28;;;5.18;;
64678;SDS011;51094;53.864;27.676;2022-12-26T19:02:59;5.25;;;5.15;;
64678;SDS011;51094;53.864;27.676;2022-12-26T19:05:27;4.95;;;4.85;;
64678;SDS011;51094;53.864;27.676;2022-12-26T19:08:00;5.03;;;4.93;;
64678;SDS011;51094;53.864;27.676;2022-12-26T19:10:31;5.20;;;5.10;;
64678;SDS011;51094;53.864;27.676;2022-12-26T19:13:00;5.20;;;5.10;;
64678;SDS011;51094;53.864;27.676;2022-12-26T19:15:32;4.55;;;4.45;;
64678;SDS011;51094;53.864;27.676;2022-12-26T19:18:00;4.65;;;4.55;;
64678;SDS011;51094;53.864;27.676;2022-12-26T19:20:28;4.72;;;4.63;;
64678;SDS011;51094;53.864;27.676;2022-12-26T19:22:55;4.43;;;4.32;;
64678;SDS011;51094;53.864;27.676;2022-12-26T19:25:23;4.43;;;4.32;;
64678;SDS011;51094;53.864;27.676;2022-12-26T19:27:52;4.15;;;4.05;;
64678;SDS011;51094;53.864;27.676;2022-12-26T19:30:20;4.40;;;4.30;;
64678;SDS011;51094;53.864;27.676;2022-12-26T19:32:47;4.03;;;3.92;;
64678;SDS011;51094;53.864;27.676;2022-12-26T19:35:16;3.90;;;3.83;;
64678;SDS011;51094;53.864;27.676;2022-12-26T19:37:43;3.63;;;3.63;;
64678;SDS011;51094;53.864;27.676;2022-12-26T19:40:10;4.25;;;4.15;;
64678;SDS011;51094;53.864;27.676;2022-12-26T19:42:38;3.42;;;3.42;;
64678;SDS011;51094;53.864;27.676;2022-12-26T19:45:06;3.50;;;3.50;;
64678;SDS011;51094;53.864;27.676;2022-12-26T19:47:35;3.08;;;3.08;;
64678;SDS011;51094;53.864;27.676;2022-12-26T19:50:02;3.10;;;3.10;;
64678;SDS011;51094;53.864;27.676;2022-12-26T19:52:30;3.00;;;3.00;;
64678;SDS011;51094;53.864;27.676;2022-12-26T19:54:58;2.55;;;2.55;;
64678;SDS011;51094;53.864;27.676;2022-12-26T19:57:24;3.10;;;3.05;;
64678;SDS011;51094;53.864;27.676;2022-12-26T19:59:51;2.70;;;2.70;;
64678;SDS011;51094;53.864;27.676;2022-12-26T20:02:18;3.03;;;3.03;;
64678;SDS011;51094;53.864;27.676;2022-12-26T20:04:45;2.70;;;2.70;;
64678;SDS011;51094;53.864;27.676;2022-12-26T20:07:12;2.83;;;2.83;;
64678;SDS011;51094;53.864;27.676;2022-12-26T20:09:39;2.85;;;2.85;;
64678;SDS011;51094;53.864;27.676;2022-12-26T20:12:06;3.15;;;3.15;;
64678;SDS011;51094;53.864;27.676;2022-12-26T20:14:34;2.67;;;2.67;;
64678;SDS011;51094;53.864;27.676;2022-12-26T20:17:01;2.60;;;2.60;;
64678;SDS011;51094;53.864;27.676;2022-12-26T20:19:33;2.60;;;2.58;;
64678;SDS011;51094;53.864;27.676;2022-12-26T20:22:00;2.50;;;2.50;;
64678;SDS011;51094;53.864;27.676;2022-12-26T20:24:27;2.50;;;2.50;;
64678;SDS011;51094;53.864;27.676;2022-12-26T20:26:54;2.45;;;2.45;;
64678;SDS011;51094;53.864;27.676;2022-12-26T20:29:20;2.08;;;2.08;;
64678;SDS011;51094;53.864;27.676;2022-12-26T20:31:48;2.30;;;2.30;;
64678;SDS011;51094;53.864;27.676;2022-12-26T20:34:15;2.22;;;2.22;;
64678;SDS011;51094;53.864;27.676;2022-12-26T20:36:42;2.10;;;2.10;;
64678;SDS011;51094;53.864;27.676;2022-12-26T20:39:11;2.20;;;2.20;;
64678;SDS011;51094;53.864;27.676;2022-12-26T20:41:40;2.05;;;2.05;;
64678;SDS011;51094;53.864;27.676;2022-12-26T20:44:07;2.00;;;2.00;;